Terminal Aerodrome Forecast
Issued by NWS

Home | Current Version | Previous Version | Text Only | Print | Product List | Glossary On
Versions: 1 2 3 4 5 6 7 8 9 10 11 12 13 14
000
FTUS45 KVEF 302300
TAFBIH
TAF
KBIH 302320Z 0100/0124 28011KT P6SM FEW100
     FM010200 01011KT P6SM SKC
     FM010500 35016G25KT P6SM SKC
     FM011800 35012G20KT P6SM SKC=

USA.gov is the U.S. government's official web portal to all federal, state and local government web resources and services.